createdAt,value
2019-03-08T00:02:54.109Z,80.00
2019-03-08T00:12:59.529Z,78.70
2019-03-08T00:23:05.980Z,80.20
2019-03-08T00:33:11.343Z,79.60
2019-03-08T00:43:16.727Z,79.40
2019-03-08T00:53:22.098Z,79.70
2019-03-08T01:03:27.665Z,79.20
2019-03-08T01:13:33.269Z,78.70
2019-03-08T01:23:38.625Z,80.20
2019-03-08T01:33:44.053Z,80.10
2019-03-08T01:43:49.420Z,79.40
2019-03-08T01:53:54.795Z,79.90
2019-03-08T02:04:00.175Z,80.50
2019-03-08T02:14:05.625Z,82.30
2019-03-08T02:24:11.028Z,82.90
2019-03-08T02:34:16.384Z,83.30
2019-03-08T02:44:21.749Z,82.00
2019-03-08T02:54:27.121Z,81.60
2019-03-08T03:04:32.476Z,82.30
2019-03-08T03:14:37.836Z,81.50
2019-03-08T03:24:43.185Z,81.90
2019-03-08T03:34:48.554Z,83.10
2019-03-08T03:44:53.911Z,81.60
2019-03-08T03:54:59.281Z,82.30
2019-03-08T04:05:05.595Z,80.50
2019-03-08T04:15:19.209Z,82.30
2019-03-08T04:25:25.314Z,82.10
2019-03-08T04:35:30.668Z,81.90
2019-03-08T04:45:36.136Z,82.70
2019-03-08T04:55:41.510Z,83.10
2019-03-08T05:05:46.893Z,83.90
2019-03-08T05:15:52.236Z,82.80
2019-03-08T05:25:57.760Z,81.70
2019-03-08T05:36:03.157Z,81.50
2019-03-08T05:46:08.528Z,80.90
2019-03-08T05:56:13.916Z,80.60
2019-03-08T06:06:19.256Z,79.90
2019-03-08T06:16:24.803Z,80.30
2019-03-08T06:26:30.197Z,79.40
2019-03-08T06:36:37.159Z,78.30
2019-03-08T06:46:42.641Z,76.90
2019-03-08T06:56:47.991Z,75.50
2019-03-08T07:06:53.505Z,74.90
2019-03-08T07:16:58.844Z,72.60
2019-03-08T07:27:06.546Z,71.50
2019-03-08T07:37:32.822Z,70.40
2019-03-08T07:47:52.239Z,68.40
2019-03-08T07:57:59.200Z,66.00
2019-03-08T08:08:06.300Z,68.00
2019-03-08T08:18:17.638Z,64.40
2019-03-08T08:28:28.863Z,64.70
2019-03-08T08:38:41.831Z,63.00
2019-03-08T08:49:00.908Z,60.70
2019-03-08T08:59:17.132Z,60.70
2019-03-08T09:09:27.015Z,59.90
2019-03-08T09:19:42.937Z,59.00
2019-03-08T09:29:49.861Z,58.70
2019-03-08T09:39:57.067Z,57.30
2019-03-08T09:50:16.112Z,56.70
2019-03-08T10:00:25.775Z,56.90
2019-03-08T10:10:48.948Z,56.00
2019-03-08T10:20:58.747Z,55.90
2019-03-08T10:31:05.699Z,56.20
2019-03-08T10:41:18.419Z,54.40
2019-03-08T10:51:27.904Z,52.50
2019-03-08T11:01:35.003Z,52.30
2019-03-08T11:11:47.981Z,51.90
2019-03-08T11:22:11.626Z,50.90
2019-03-08T11:32:27.536Z,49.00
2019-03-08T11:42:34.520Z,49.00
2019-03-08T11:52:57.008Z,49.30
2019-03-08T12:03:06.885Z,48.90
2019-03-08T12:13:13.864Z,48.60
2019-03-08T12:23:21.125Z,44.40
2019-03-08T12:33:28.152Z,47.00
2019-03-08T12:43:45.161Z,48.60
2019-03-08T12:53:55.426Z,48.30
2019-03-08T13:04:18.896Z,50.20
2019-03-08T13:14:24.354Z,49.00
2019-03-08T13:24:29.736Z,48.60
2019-03-08T13:34:35.109Z,47.20
2019-03-08T13:44:40.481Z,47.80
2019-03-08T13:54:45.855Z,48.50
2019-03-08T14:04:51.178Z,44.40
2019-03-08T14:14:56.674Z,44.20
2019-03-08T14:25:02.061Z,42.60
2019-03-08T14:35:07.615Z,41.20
2019-03-08T14:45:14.885Z,43.10
2019-03-08T14:55:22.730Z,42.90
2019-03-08T15:05:27.232Z,44.10
2019-03-08T15:15:32.707Z,43.40
2019-03-08T15:25:39.583Z,43.50
2019-03-08T15:35:46.725Z,44.50
2019-03-08T15:45:52.077Z,45.80
2019-03-08T15:55:57.416Z,44.80
2019-03-08T16:06:02.977Z,45.50
2019-03-08T16:16:09.748Z,46.40
2019-03-08T16:26:15.243Z,45.00
2019-03-08T16:36:25.916Z,45.90
2019-03-08T16:46:44.666Z,44.10
2019-03-08T16:56:54.341Z,42.50
2019-03-08T17:07:55.265Z,43.20
2019-03-08T17:18:08.030Z,42.90
2019-03-08T17:28:27.616Z,43.80
2019-03-08T17:38:54.876Z,44.00
2019-03-08T17:49:01.367Z,44.40
2019-03-08T17:59:14.453Z,45.40
2019-03-08T18:09:24.040Z,46.90
2019-03-08T18:19:36.982Z,47.40
2019-03-08T18:29:47.126Z,48.20
2019-03-08T18:39:55.506Z,49.00
2019-03-08T18:50:02.462Z,48.90
2019-03-08T19:00:13.364Z,48.50
2019-03-08T19:10:27.939Z,47.90
2019-03-08T19:20:44.278Z,49.00
2019-03-08T19:30:51.322Z,49.20
2019-03-08T19:41:07.199Z,50.00
2019-03-08T19:51:17.428Z,50.60
2019-03-08T20:01:42.777Z,50.50
2019-03-08T20:11:53.146Z,51.80
2019-03-08T20:22:00.393Z,52.60
2019-03-08T20:32:10.212Z,54.90
2019-03-08T20:42:32.812Z,56.80
2019-03-08T20:52:38.190Z,57.10
2019-03-08T21:02:43.808Z,58.00
2019-03-08T21:12:49.192Z,58.30
2019-03-08T21:22:54.589Z,59.50
2019-03-08T21:33:00.088Z,59.20
2019-03-08T21:43:06.103Z,59.00
2019-03-08T21:53:11.490Z,61.50
2019-03-08T22:03:16.875Z,63.10
2019-03-08T22:13:22.251Z,63.90
2019-03-08T22:23:27.626Z,66.10
2019-03-08T22:33:34.035Z,66.70
2019-03-08T22:43:39.395Z,68.10
2019-03-08T22:53:44.848Z,67.20
2019-03-08T23:03:50.211Z,66.80
2019-03-08T23:13:55.598Z,65.80
2019-03-08T23:24:01.225Z,66.40
2019-03-08T23:34:07.040Z,69.10
2019-03-08T23:44:13.924Z,70.80
2019-03-08T23:54:19.320Z,72.90
